sensor_id;sensor_type;location;lat;lon;timestamp;P1;durP1;ratioP1;P2;durP2;ratioP2
41903;SDS011;27586;51.124;4.182;2023-06-10T00:00:41;6.05;;;5.45;;
41903;SDS011;27586;51.124;4.182;2023-06-10T00:03:07;7.40;;;5.78;;
41903;SDS011;27586;51.124;4.182;2023-06-10T00:05:34;6.38;;;5.78;;
41903;SDS011;27586;51.124;4.182;2023-06-10T00:08:01;7.43;;;5.72;;
41903;SDS011;27586;51.124;4.182;2023-06-10T00:10:32;6.97;;;5.55;;
41903;SDS011;27586;51.124;4.182;2023-06-10T00:13:00;8.55;;;5.25;;
41903;SDS011;27586;51.124;4.182;2023-06-10T00:15:26;6.45;;;5.68;;
41903;SDS011;27586;51.124;4.182;2023-06-10T00:17:51;8.00;;;5.50;;
41903;SDS011;27586;51.124;4.182;2023-06-10T00:20:18;6.32;;;5.57;;
41903;SDS011;27586;51.124;4.182;2023-06-10T00:22:43;6.88;;;6.22;;
41903;SDS011;27586;51.124;4.182;2023-06-10T00:25:10;7.07;;;5.68;;
41903;SDS011;27586;51.124;4.182;2023-06-10T00:27:36;7.65;;;5.78;;
41903;SDS011;27586;51.124;4.182;2023-06-10T00:30:03;6.45;;;5.72;;
41903;SDS011;27586;51.124;4.182;2023-06-10T00:32:32;6.20;;;5.70;;
41903;SDS011;27586;51.124;4.182;2023-06-10T00:35:01;6.25;;;5.65;;
41903;SDS011;27586;51.124;4.182;2023-06-10T00:37:28;6.80;;;5.80;;
41903;SDS011;27586;51.124;4.182;2023-06-10T00:39:54;6.78;;;5.85;;
41903;SDS011;27586;51.124;4.182;2023-06-10T00:42:20;6.85;;;5.85;;
41903;SDS011;27586;51.124;4.182;2023-06-10T00:44:49;6.88;;;6.20;;
41903;SDS011;27586;51.124;4.182;2023-06-10T00:47:15;6.65;;;5.63;;
41903;SDS011;27586;51.124;4.182;2023-06-10T00:49:41;6.63;;;5.90;;
41903;SDS011;27586;51.124;4.182;2023-06-10T00:52:07;6.75;;;5.72;;
41903;SDS011;27586;51.124;4.182;2023-06-10T00:54:33;8.73;;;5.60;;
41903;SDS011;27586;51.124;4.182;2023-06-10T00:57:00;6.63;;;5.95;;
41903;SDS011;27586;51.124;4.182;2023-06-10T00:59:30;6.63;;;5.88;;
41903;SDS011;27586;51.124;4.182;2023-06-10T01:01:56;6.80;;;6.03;;
41903;SDS011;27586;51.124;4.182;2023-06-10T01:04:22;8.35;;;6.18;;
41903;SDS011;27586;51.124;4.182;2023-06-10T01:09:24;7.78;;;6.47;;
41903;SDS011;27586;51.124;4.182;2023-06-10T01:12:05;6.20;;;5.60;;
41903;SDS011;27586;51.124;4.182;2023-06-10T01:14:43;9.15;;;6.13;;
41903;SDS011;27586;51.124;4.182;2023-06-10T01:17:13;8.75;;;6.47;;
41903;SDS011;27586;51.124;4.182;2023-06-10T01:19:41;8.35;;;6.25;;
41903;SDS011;27586;51.124;4.182;2023-06-10T01:22:08;10.68;;;6.35;;
41903;SDS011;27586;51.124;4.182;2023-06-10T01:24:36;6.68;;;5.97;;
41903;SDS011;27586;51.124;4.182;2023-06-10T01:27:05;6.45;;;5.85;;
41903;SDS011;27586;51.124;4.182;2023-06-10T01:29:39;7.28;;;6.57;;
41903;SDS011;27586;51.124;4.182;2023-06-10T01:32:17;6.65;;;5.95;;
41903;SDS011;27586;51.124;4.182;2023-06-10T01:34:47;8.10;;;6.13;;
41903;SDS011;27586;51.124;4.182;2023-06-10T01:37:16;6.72;;;6.05;;
41903;SDS011;27586;51.124;4.182;2023-06-10T01:39:44;9.30;;;6.18;;
41903;SDS011;27586;51.124;4.182;2023-06-10T01:42:12;7.97;;;6.05;;
41903;SDS011;27586;51.124;4.182;2023-06-10T01:44:38;6.55;;;5.97;;
41903;SDS011;27586;51.124;4.182;2023-06-10T01:47:05;7.10;;;6.50;;
41903;SDS011;27586;51.124;4.182;2023-06-10T01:49:30;7.00;;;6.38;;
41903;SDS011;27586;51.124;4.182;2023-06-10T01:51:56;8.95;;;6.80;;
41903;SDS011;27586;51.124;4.182;2023-06-10T01:54:22;7.38;;;6.40;;
41903;SDS011;27586;51.124;4.182;2023-06-10T01:56:47;8.45;;;6.32;;
41903;SDS011;27586;51.124;4.182;2023-06-10T01:59:13;7.30;;;6.13;;
41903;SDS011;27586;51.124;4.182;2023-06-10T02:01:38;6.93;;;6.10;;
41903;SDS011;27586;51.124;4.182;2023-06-10T02:04:04;8.25;;;5.70;;
41903;SDS011;27586;51.124;4.182;2023-06-10T02:06:30;8.02;;;6.70;;
41903;SDS011;27586;51.124;4.182;2023-06-10T02:08:56;6.55;;;5.95;;
41903;SDS011;27586;51.124;4.182;2023-06-10T02:11:24;7.90;;;6.25;;
41903;SDS011;27586;51.124;4.182;2023-06-10T02:13:51;7.10;;;6.40;;
41903;SDS011;27586;51.124;4.182;2023-06-10T02:16:17;7.03;;;6.32;;
41903;SDS011;27586;51.124;4.182;2023-06-10T02:18:43;8.55;;;6.55;;
41903;SDS011;27586;51.124;4.182;2023-06-10T02:21:09;9.70;;;6.40;;
41903;SDS011;27586;51.124;4.182;2023-06-10T02:23:35;7.30;;;6.55;;
41903;SDS011;27586;51.124;4.182;2023-06-10T02:26:01;8.20;;;6.63;;
41903;SDS011;27586;51.124;4.182;2023-06-10T02:28:27;9.00;;;7.10;;
41903;SDS011;27586;51.124;4.182;2023-06-10T02:30:53;7.38;;;6.68;;
41903;SDS011;27586;51.124;4.182;2023-06-10T02:33:18;7.22;;;6.53;;
41903;SDS011;27586;51.124;4.182;2023-06-10T02:35:44;7.85;;;6.80;;
41903;SDS011;27586;51.124;4.182;2023-06-10T02:38:10;6.97;;;6.35;;
41903;SDS011;27586;51.124;4.182;2023-06-10T02:40:36;8.20;;;6.60;;
41903;SDS011;27586;51.124;4.182;2023-06-10T02:43:01;7.72;;;6.88;;
41903;SDS011;27586;51.124;4.182;2023-06-10T02:45:27;7.78;;;7.07;;
41903;SDS011;27586;51.124;4.182;2023-06-10T02:47:53;7.15;;;6.50;;
41903;SDS011;27586;51.124;4.182;2023-06-10T02:50:18;9.48;;;7.35;;
41903;SDS011;27586;51.124;4.182;2023-06-10T02:52:44;8.23;;;7.07;;
41903;SDS011;27586;51.124;4.182;2023-06-10T02:55:10;8.20;;;7.00;;
41903;SDS011;27586;51.124;4.182;2023-06-10T02:57:36;7.35;;;6.53;;
41903;SDS011;27586;51.124;4.182;2023-06-10T03:00:02;8.90;;;6.63;;
41903;SDS011;27586;51.124;4.182;2023-06-10T03:02:33;9.40;;;7.00;;
41903;SDS011;27586;51.124;4.182;2023-06-10T03:05:01;7.30;;;6.60;;
41903;SDS011;27586;51.124;4.182;2023-06-10T03:07:27;7.68;;;6.88;;
41903;SDS011;27586;51.124;4.182;2023-06-10T03:09:57;7.28;;;6.40;;
41903;SDS011;27586;51.124;4.182;2023-06-10T03:12:22;7.43;;;6.72;;
41903;SDS011;27586;51.124;4.182;2023-06-10T03:14:48;9.68;;;7.25;;
41903;SDS011;27586;51.124;4.182;2023-06-10T03:17:13;7.82;;;6.85;;
41903;SDS011;27586;51.124;4.182;2023-06-10T03:19:39;8.63;;;7.07;;
41903;SDS011;27586;51.124;4.182;2023-06-10T03:22:09;7.65;;;6.95;;
41903;SDS011;27586;51.124;4.182;2023-06-10T03:24:38;8.35;;;6.80;;
41903;SDS011;27586;51.124;4.182;2023-06-10T03:27:07;10.77;;;7.03;;
41903;SDS011;27586;51.124;4.182;2023-06-10T03:29:34;8.02;;;6.72;;
41903;SDS011;27586;51.124;4.182;2023-06-10T03:32:01;8.15;;;6.97;;
41903;SDS011;27586;51.124;4.182;2023-06-10T03:34:27;8.15;;;6.78;;
41903;SDS011;27586;51.124;4.182;2023-06-10T03:36:52;10.07;;;7.43;;
41903;SDS011;27586;51.124;4.182;2023-06-10T03:39:18;8.48;;;7.25;;
41903;SDS011;27586;51.124;4.182;2023-06-10T03:41:44;8.38;;;7.43;;
41903;SDS011;27586;51.124;4.182;2023-06-10T03:44:10;7.68;;;6.97;;
41903;SDS011;27586;51.124;4.182;2023-06-10T03:46:35;8.02;;;7.00;;
41903;SDS011;27586;51.124;4.182;2023-06-10T03:49:01;9.18;;;7.00;;
41903;SDS011;27586;51.124;4.182;2023-06-10T03:51:28;7.72;;;6.97;;
41903;SDS011;27586;51.124;4.182;2023-06-10T03:53:54;8.50;;;7.35;;
41903;SDS011;27586;51.124;4.182;2023-06-10T03:56:19;8.43;;;7.65;;
41903;SDS011;27586;51.124;4.182;2023-06-10T03:58:45;8.32;;;7.22;;
41903;SDS011;27586;51.124;4.182;2023-06-10T04:01:11;9.45;;;7.95;;
41903;SDS011;27586;51.124;4.182;2023-06-10T04:03:38;8.45;;;7.75;;
41903;SDS011;27586;51.124;4.182;2023-06-10T04:06:06;8.98;;;7.55;;
41903;SDS011;27586;51.124;4.182;2023-06-10T04:08:32;10.18;;;7.15;;
41903;SDS011;27586;51.124;4.182;2023-06-10T04:10:58;8.38;;;7.57;;
41903;SDS011;27586;51.124;4.182;2023-06-10T04:13:24;9.43;;;7.57;;
41903;SDS011;27586;51.124;4.182;2023-06-10T04:15:50;9.10;;;8.13;;
41903;SDS011;27586;51.124;4.182;2023-06-10T04:18:16;8.80;;;7.30;;
41903;SDS011;27586;51.124;4.182;2023-06-10T04:20:41;8.25;;;7.45;;
41903;SDS011;27586;51.124;4.182;2023-06-10T04:23:07;8.85;;;7.53;;
41903;SDS011;27586;51.124;4.182;2023-06-10T04:25:33;8.50;;;7.65;;
41903;SDS011;27586;51.124;4.182;2023-06-10T04:27:59;10.15;;;8.18;;
41903;SDS011;27586;51.124;4.182;2023-06-10T04:30:25;8.50;;;7.70;;
41903;SDS011;27586;51.124;4.182;2023-06-10T04:32:50;8.05;;;7.38;;
41903;SDS011;27586;51.124;4.182;2023-06-10T04:35:17;9.05;;;8.18;;
41903;SDS011;27586;51.124;4.182;2023-06-10T04:37:42;8.00;;;7.30;;
41903;SDS011;27586;51.124;4.182;2023-06-10T04:40:08;8.52;;;7.22;;
41903;SDS011;27586;51.124;4.182;2023-06-10T04:42:35;9.50;;;7.78;;
41903;SDS011;27586;51.124;4.182;2023-06-10T04:45:01;8.27;;;7.40;;
41903;SDS011;27586;51.124;4.182;2023-06-10T04:47:31;9.65;;;7.78;;
41903;SDS011;27586;51.124;4.182;2023-06-10T04:49:58;8.57;;;7.15;;
41903;SDS011;27586;51.124;4.182;2023-06-10T04:52:28;8.63;;;7.82;;
41903;SDS011;27586;51.124;4.182;2023-06-10T04:54:54;9.35;;;7.50;;
41903;SDS011;27586;51.124;4.182;2023-06-10T04:57:20;9.30;;;8.15;;
41903;SDS011;27586;51.124;4.182;2023-06-10T04:59:46;12.30;;;7.53;;
41903;SDS011;27586;51.124;4.182;2023-06-10T05:02:12;8.82;;;7.18;;
41903;SDS011;27586;51.124;4.182;2023-06-10T05:04:38;8.85;;;7.93;;
41903;SDS011;27586;51.124;4.182;2023-06-10T05:07:04;9.98;;;7.82;;
41903;SDS011;27586;51.124;4.182;2023-06-10T05:09:30;9.18;;;7.55;;
41903;SDS011;27586;51.124;4.182;2023-06-10T05:11:56;9.38;;;8.13;;
41903;SDS011;27586;51.124;4.182;2023-06-10T05:14:21;9.30;;;7.80;;
41903;SDS011;27586;51.124;4.182;2023-06-10T05:16:50;9.00;;;8.07;;
41903;SDS011;27586;51.124;4.182;2023-06-10T05:19:16;9.48;;;8.10;;
41903;SDS011;27586;51.124;4.182;2023-06-10T05:21:42;8.80;;;7.97;;
41903;SDS011;27586;51.124;4.182;2023-06-10T05:24:09;10.05;;;7.72;;
41903;SDS011;27586;51.124;4.182;2023-06-10T05:26:35;11.07;;;7.63;;
41903;SDS011;27586;51.124;4.182;2023-06-10T05:29:03;9.05;;;7.85;;
41903;SDS011;27586;51.124;4.182;2023-06-10T05:31:29;8.52;;;7.72;;
41903;SDS011;27586;51.124;4.182;2023-06-10T05:33:55;8.95;;;8.07;;
41903;SDS011;27586;51.124;4.182;2023-06-10T05:36:20;9.27;;;7.50;;
41903;SDS011;27586;51.124;4.182;2023-06-10T05:38:46;9.10;;;7.07;;
41903;SDS011;27586;51.124;4.182;2023-06-10T05:41:12;8.85;;;7.35;;
41903;SDS011;27586;51.124;4.182;2023-06-10T05:43:38;8.50;;;7.70;;
41903;SDS011;27586;51.124;4.182;2023-06-10T05:46:04;8.98;;;8.02;;
41903;SDS011;27586;51.124;4.182;2023-06-10T05:48:29;8.27;;;7.50;;
41903;SDS011;27586;51.124;4.182;2023-06-10T05:50:55;9.50;;;7.63;;
41903;SDS011;27586;51.124;4.182;2023-06-10T05:53:21;9.00;;;7.88;;
41903;SDS011;27586;51.124;4.182;2023-06-10T05:55:47;8.93;;;7.82;;
41903;SDS011;27586;51.124;4.182;2023-06-10T05:58:13;11.32;;;8.32;;
41903;SDS011;27586;51.124;4.182;2023-06-10T06:00:39;9.45;;;7.65;;
41903;SDS011;27586;51.124;4.182;2023-06-10T06:03:08;9.40;;;7.95;;
41903;SDS011;27586;51.124;4.182;2023-06-10T06:05:35;9.88;;;8.40;;
41903;SDS011;27586;51.124;4.182;2023-06-10T06:08:02;8.63;;;7.43;;
41903;SDS011;27586;51.124;4.182;2023-06-10T06:10:31;9.80;;;7.97;;
41903;SDS011;27586;51.124;4.182;2023-06-10T06:12:57;8.95;;;7.90;;
41903;SDS011;27586;51.124;4.182;2023-06-10T06:15:23;8.52;;;7.63;;
41903;SDS011;27586;51.124;4.182;2023-06-10T06:17:48;9.20;;;7.95;;
41903;SDS011;27586;51.124;4.182;2023-06-10T06:20:17;8.65;;;7.13;;
41903;SDS011;27586;51.124;4.182;2023-06-10T06:22:46;10.68;;;8.40;;
41903;SDS011;27586;51.124;4.182;2023-06-10T06:25:12;8.70;;;7.88;;
41903;SDS011;27586;51.124;4.182;2023-06-10T06:27:37;8.75;;;7.75;;
41903;SDS011;27586;51.124;4.182;2023-06-10T06:30:03;9.38;;;8.32;;
41903;SDS011;27586;51.124;4.182;2023-06-10T06:32:30;8.90;;;7.97;;
41903;SDS011;27586;51.124;4.182;2023-06-10T06:34:55;8.57;;;7.65;;
41903;SDS011;27586;51.124;4.182;2023-06-10T06:37:22;8.88;;;7.63;;
41903;SDS011;27586;51.124;4.182;2023-06-10T06:39:49;8.27;;;7.43;;
41903;SDS011;27586;51.124;4.182;2023-06-10T06:42:16;8.80;;;8.00;;
41903;SDS011;27586;51.124;4.182;2023-06-10T06:44:42;9.13;;;7.63;;
41903;SDS011;27586;51.124;4.182;2023-06-10T06:47:08;11.23;;;7.15;;
41903;SDS011;27586;51.124;4.182;2023-06-10T06:49:34;10.85;;;8.27;;
41903;SDS011;27586;51.124;4.182;2023-06-10T06:52:00;12.25;;;7.72;;
41903;SDS011;27586;51.124;4.182;2023-06-10T06:54:26;8.15;;;7.38;;
41903;SDS011;27586;51.124;4.182;2023-06-10T06:56:52;8.52;;;6.95;;
41903;SDS011;27586;51.124;4.182;2023-06-10T06:59:17;8.48;;;7.68;;
41903;SDS011;27586;51.124;4.182;2023-06-10T07:01:44;9.77;;;7.75;;
41903;SDS011;27586;51.124;4.182;2023-06-10T07:04:11;9.13;;;7.68;;
41903;SDS011;27586;51.124;4.182;2023-06-10T07:06:36;12.00;;;7.60;;
41903;SDS011;27586;51.124;4.182;2023-06-10T07:09:03;8.10;;;7.40;;
41903;SDS011;27586;51.124;4.182;2023-06-10T07:11:29;10.50;;;7.10;;
41903;SDS011;27586;51.124;4.182;2023-06-10T07:13:55;8.23;;;7.18;;
41903;SDS011;27586;51.124;4.182;2023-06-10T07:16:21;8.63;;;6.93;;
41903;SDS011;27586;51.124;4.182;2023-06-10T07:18:47;7.45;;;6.80;;
41903;SDS011;27586;51.124;4.182;2023-06-10T07:21:12;9.13;;;6.88;;
41903;SDS011;27586;51.124;4.182;2023-06-10T07:23:41;10.07;;;7.57;;
41903;SDS011;27586;51.124;4.182;2023-06-10T07:26:07;7.88;;;6.90;;
41903;SDS011;27586;51.124;4.182;2023-06-10T07:28:35;7.43;;;6.65;;
41903;SDS011;27586;51.124;4.182;2023-06-10T07:31:02;8.68;;;7.50;;
41903;SDS011;27586;51.124;4.182;2023-06-10T07:33:28;10.07;;;7.40;;
41903;SDS011;27586;51.124;4.182;2023-06-10T07:35:54;11.57;;;7.90;;
41903;SDS011;27586;51.124;4.182;2023-06-10T07:38:20;8.95;;;7.05;;
41903;SDS011;27586;51.124;4.182;2023-06-10T07:40:45;7.97;;;6.85;;
41903;SDS011;27586;51.124;4.182;2023-06-10T07:43:11;8.30;;;7.20;;
41903;SDS011;27586;51.124;4.182;2023-06-10T07:45:39;7.80;;;7.00;;
41903;SDS011;27586;51.124;4.182;2023-06-10T07:48:05;11.73;;;6.72;;
41903;SDS011;27586;51.124;4.182;2023-06-10T07:50:30;6.85;;;6.20;;
41903;SDS011;27586;51.124;4.182;2023-06-10T07:52:56;10.50;;;6.60;;
41903;SDS011;27586;51.124;4.182;2023-06-10T07:55:22;9.82;;;6.05;;
41903;SDS011;27586;51.124;4.182;2023-06-10T07:57:47;6.78;;;6.07;;
41903;SDS011;27586;51.124;4.182;2023-06-10T08:00:13;9.68;;;6.82;;
41903;SDS011;27586;51.124;4.182;2023-06-10T08:02:39;11.48;;;6.53;;
41903;SDS011;27586;51.124;4.182;2023-06-10T08:05:05;6.35;;;5.75;;
41903;SDS011;27586;51.124;4.182;2023-06-10T08:07:31;6.22;;;5.57;;
41903;SDS011;27586;51.124;4.182;2023-06-10T08:09:56;7.70;;;6.47;;
41903;SDS011;27586;51.124;4.182;2023-06-10T08:12:22;9.10;;;6.13;;
41903;SDS011;27586;51.124;4.182;2023-06-10T08:14:48;6.07;;;5.50;;
41903;SDS011;27586;51.124;4.182;2023-06-10T08:17:13;6.80;;;5.25;;
41903;SDS011;27586;51.124;4.182;2023-06-10T08:19:39;7.80;;;6.20;;
41903;SDS011;27586;51.124;4.182;2023-06-10T08:22:05;6.80;;;5.97;;
41903;SDS011;27586;51.124;4.182;2023-06-10T08:24:31;7.00;;;6.18;;
41903;SDS011;27586;51.124;4.182;2023-06-10T08:26:56;6.05;;;5.03;;
41903;SDS011;27586;51.124;4.182;2023-06-10T08:29:22;6.20;;;5.60;;
41903;SDS011;27586;51.124;4.182;2023-06-10T08:31:48;8.43;;;5.43;;
41903;SDS011;27586;51.124;4.182;2023-06-10T08:34:14;6.07;;;5.40;;
41903;SDS011;27586;51.124;4.182;2023-06-10T08:36:39;8.60;;;5.35;;
41903;SDS011;27586;51.124;4.182;2023-06-10T08:39:05;5.55;;;5.05;;
41903;SDS011;27586;51.124;4.182;2023-06-10T08:41:34;5.63;;;5.13;;
41903;SDS011;27586;51.124;4.182;2023-06-10T08:44:03;8.07;;;5.45;;
41903;SDS011;27586;51.124;4.182;2023-06-10T08:46:47;7.50;;;5.50;;
41903;SDS011;27586;51.124;4.182;2023-06-10T08:49:17;5.68;;;4.97;;
41903;SDS011;27586;51.124;4.182;2023-06-10T08:51:45;5.88;;;5.35;;
41903;SDS011;27586;51.124;4.182;2023-06-10T08:54:16;6.57;;;5.60;;
41903;SDS011;27586;51.124;4.182;2023-06-10T08:56:45;8.02;;;5.30;;
41903;SDS011;27586;51.124;4.182;2023-06-10T08:59:15;7.15;;;5.60;;
41903;SDS011;27586;51.124;4.182;2023-06-10T09:01:44;7.38;;;5.53;;
41903;SDS011;27586;51.124;4.182;2023-06-10T09:04:10;6.53;;;4.95;;
41903;SDS011;27586;51.124;4.182;2023-06-10T09:06:36;5.88;;;5.28;;
41903;SDS011;27586;51.124;4.182;2023-06-10T09:09:04;7.38;;;5.13;;
41903;SDS011;27586;51.124;4.182;2023-06-10T09:11:31;6.50;;;5.22;;
41903;SDS011;27586;51.124;4.182;2023-06-10T09:13:57;6.05;;;5.13;;
41903;SDS011;27586;51.124;4.182;2023-06-10T09:16:23;7.90;;;4.82;;
41903;SDS011;27586;51.124;4.182;2023-06-10T09:18:50;6.60;;;5.13;;
41903;SDS011;27586;51.124;4.182;2023-06-10T09:21:21;6.70;;;4.68;;
41903;SDS011;27586;51.124;4.182;2023-06-10T09:23:47;5.53;;;4.82;;
41903;SDS011;27586;51.124;4.182;2023-06-10T09:26:13;5.72;;;5.05;;
41903;SDS011;27586;51.124;4.182;2023-06-10T09:28:39;5.20;;;4.78;;
41903;SDS011;27586;51.124;4.182;2023-06-10T09:31:07;7.47;;;4.75;;
41903;SDS011;27586;51.124;4.182;2023-06-10T09:33:36;5.97;;;4.68;;
41903;SDS011;27586;51.124;4.182;2023-06-10T09:36:03;5.47;;;4.93;;
41903;SDS011;27586;51.124;4.182;2023-06-10T09:38:30;7.05;;;4.93;;
41903;SDS011;27586;51.124;4.182;2023-06-10T09:40:57;5.07;;;4.68;;
41903;SDS011;27586;51.124;4.182;2023-06-10T09:43:22;5.97;;;4.75;;
41903;SDS011;27586;51.124;4.182;2023-06-10T09:45:48;6.63;;;4.93;;
41903;SDS011;27586;51.124;4.182;2023-06-10T09:48:21;5.80;;;4.45;;
41903;SDS011;27586;51.124;4.182;2023-06-10T09:50:48;5.97;;;4.75;;
41903;SDS011;27586;51.124;4.182;2023-06-10T09:53:14;4.80;;;4.32;;
41903;SDS011;27586;51.124;4.182;2023-06-10T09:55:42;6.68;;;4.25;;
41903;SDS011;27586;51.124;4.182;2023-06-10T09:58:08;4.50;;;4.03;;
41903;SDS011;27586;51.124;4.182;2023-06-10T10:00:34;4.78;;;4.38;;
41903;SDS011;27586;51.124;4.182;2023-06-10T10:03:01;6.45;;;4.40;;
41903;SDS011;27586;51.124;4.182;2023-06-10T10:05:27;6.80;;;4.38;;
41903;SDS011;27586;51.124;4.182;2023-06-10T10:07:53;6.72;;;4.93;;
41903;SDS011;27586;51.124;4.182;2023-06-10T10:10:21;5.10;;;4.47;;
41903;SDS011;27586;51.124;4.182;2023-06-10T10:12:47;4.93;;;4.25;;
41903;SDS011;27586;51.124;4.182;2023-06-10T10:15:16;46.33;;;6.95;;
41903;SDS011;27586;51.124;4.182;2023-06-10T10:17:49;6.40;;;4.75;;
41903;SDS011;27586;51.124;4.182;2023-06-10T10:20:22;5.07;;;4.57;;
41903;SDS011;27586;51.124;4.182;2023-06-10T10:22:53;5.05;;;4.55;;
41903;SDS011;27586;51.124;4.182;2023-06-10T10:25:38;7.20;;;4.53;;
41903;SDS011;27586;51.124;4.182;2023-06-10T10:28:08;5.85;;;4.90;;
41903;SDS011;27586;51.124;4.182;2023-06-10T10:30:45;5.25;;;4.68;;
41903;SDS011;27586;51.124;4.182;2023-06-10T10:33:18;6.93;;;5.15;;
41903;SDS011;27586;51.124;4.182;2023-06-10T10:35:48;7.75;;;4.97;;
41903;SDS011;27586;51.124;4.182;2023-06-10T10:38:14;5.20;;;4.70;;
41903;SDS011;27586;51.124;4.182;2023-06-10T10:40:40;5.60;;;4.85;;
41903;SDS011;27586;51.124;4.182;2023-06-10T10:43:08;5.20;;;4.70;;
41903;SDS011;27586;51.124;4.182;2023-06-10T10:45:35;7.65;;;5.18;;
41903;SDS011;27586;51.124;4.182;2023-06-10T10:48:05;5.70;;;4.78;;
41903;SDS011;27586;51.124;4.182;2023-06-10T10:50:35;6.90;;;4.82;;
41903;SDS011;27586;51.124;4.182;2023-06-10T10:53:04;8.80;;;5.00;;
41903;SDS011;27586;51.124;4.182;2023-06-10T10:55:31;6.22;;;4.60;;
41903;SDS011;27586;51.124;4.182;2023-06-10T10:58:04;5.68;;;4.93;;
41903;SDS011;27586;51.124;4.182;2023-06-10T11:00:32;8.10;;;5.03;;
41903;SDS011;27586;51.124;4.182;2023-06-10T11:03:00;7.03;;;4.82;;
41903;SDS011;27586;51.124;4.182;2023-06-10T11:05:39;6.47;;;5.07;;
41903;SDS011;27586;51.124;4.182;2023-06-10T11:08:07;13.02;;;5.50;;
41903;SDS011;27586;51.124;4.182;2023-06-10T11:10:40;5.22;;;4.78;;
41903;SDS011;27586;51.124;4.182;2023-06-10T11:13:15;5.30;;;4.80;;
41903;SDS011;27586;51.124;4.182;2023-06-10T11:15:44;8.75;;;4.80;;
41903;SDS011;27586;51.124;4.182;2023-06-10T11:18:27;5.15;;;4.65;;
41903;SDS011;27586;51.124;4.182;2023-06-10T11:21:03;4.93;;;4.25;;
41903;SDS011;27586;51.124;4.182;2023-06-10T11:23:32;8.15;;;4.50;;
41903;SDS011;27586;51.124;4.182;2023-06-10T11:29:00;5.35;;;4.85;;
41903;SDS011;27586;51.124;4.182;2023-06-10T11:31:31;5.85;;;4.63;;
41903;SDS011;27586;51.124;4.182;2023-06-10T11:34:23;7.60;;;4.97;;
41903;SDS011;27586;51.124;4.182;2023-06-10T11:36:53;7.78;;;4.68;;
41903;SDS011;27586;51.124;4.182;2023-06-10T11:39:19;8.75;;;4.85;;
41903;SDS011;27586;51.124;4.182;2023-06-10T11:41:46;5.10;;;4.53;;
41903;SDS011;27586;51.124;4.182;2023-06-10T11:44:12;5.93;;;4.90;;
41903;SDS011;27586;51.124;4.182;2023-06-10T11:46:39;5.32;;;4.82;;
41903;SDS011;27586;51.124;4.182;2023-06-10T11:49:05;7.00;;;4.70;;
41903;SDS011;27586;51.124;4.182;2023-06-10T11:51:35;5.20;;;4.70;;
41903;SDS011;27586;51.124;4.182;2023-06-10T11:54:08;6.13;;;5.28;;
41903;SDS011;27586;51.124;4.182;2023-06-10T11:56:34;5.15;;;4.55;;
41903;SDS011;27586;51.124;4.182;2023-06-10T11:59:01;8.23;;;4.35;;
41903;SDS011;27586;51.124;4.182;2023-06-10T12:01:42;4.72;;;4.32;;
41903;SDS011;27586;51.124;4.182;2023-06-10T12:04:12;6.63;;;4.93;;
41903;SDS011;27586;51.124;4.182;2023-06-10T12:09:06;6.13;;;4.55;;
41903;SDS011;27586;51.124;4.182;2023-06-10T12:11:37;6.25;;;4.72;;
41903;SDS011;27586;51.124;4.182;2023-06-10T12:14:08;7.00;;;4.88;;
41903;SDS011;27586;51.124;4.182;2023-06-10T12:16:34;5.80;;;4.72;;
41903;SDS011;27586;51.124;4.182;2023-06-10T12:19:03;6.05;;;4.97;;
41903;SDS011;27586;51.124;4.182;2023-06-10T12:21:31;5.65;;;4.90;;
41903;SDS011;27586;51.124;4.182;2023-06-10T12:24:05;7.63;;;5.03;;
41903;SDS011;27586;51.124;4.182;2023-06-10T12:29:01;5.18;;;4.65;;
41903;SDS011;27586;51.124;4.182;2023-06-10T12:31:55;6.80;;;4.72;;
41903;SDS011;27586;51.124;4.182;2023-06-10T12:37:00;7.03;;;4.68;;
41903;SDS011;27586;51.124;4.182;2023-06-10T12:39:29;6.97;;;5.30;;
41903;SDS011;27586;51.124;4.182;2023-06-10T12:41:56;5.45;;;4.45;;
41903;SDS011;27586;51.124;4.182;2023-06-10T12:44:31;7.05;;;4.88;;
41903;SDS011;27586;51.124;4.182;2023-06-10T12:46:58;5.40;;;4.60;;
41903;SDS011;27586;51.124;4.182;2023-06-10T12:49:24;11.50;;;5.05;;
41903;SDS011;27586;51.124;4.182;2023-06-10T12:51:51;5.88;;;4.70;;
41903;SDS011;27586;51.124;4.182;2023-06-10T12:54:17;7.50;;;4.60;;
41903;SDS011;27586;51.124;4.182;2023-06-10T12:56:43;5.10;;;4.70;;
41903;SDS011;27586;51.124;4.182;2023-06-10T12:59:08;6.72;;;4.15;;
41903;SDS011;27586;51.124;4.182;2023-06-10T13:01:34;8.57;;;4.45;;
41903;SDS011;27586;51.124;4.182;2023-06-10T13:04:00;5.25;;;4.75;;
41903;SDS011;27586;51.124;4.182;2023-06-10T13:06:26;4.80;;;4.30;;
41903;SDS011;27586;51.124;4.182;2023-06-10T13:08:52;7.20;;;4.75;;
41903;SDS011;27586;51.124;4.182;2023-06-10T13:11:17;6.35;;;4.80;;
41903;SDS011;27586;51.124;4.182;2023-06-10T13:13:43;5.25;;;4.53;;
41903;SDS011;27586;51.124;4.182;2023-06-10T13:16:09;8.75;;;4.70;;
41903;SDS011;27586;51.124;4.182;2023-06-10T13:18:34;8.23;;;5.10;;
41903;SDS011;27586;51.124;4.182;2023-06-10T13:21:05;4.80;;;4.40;;
41903;SDS011;27586;51.124;4.182;2023-06-10T13:23:31;5.45;;;4.57;;
41903;SDS011;27586;51.124;4.182;2023-06-10T13:25:57;7.60;;;4.53;;
41903;SDS011;27586;51.124;4.182;2023-06-10T13:28:23;7.38;;;4.55;;
41903;SDS011;27586;51.124;4.182;2023-06-10T13:30:48;5.05;;;4.63;;
41903;SDS011;27586;51.124;4.182;2023-06-10T13:33:15;6.00;;;4.63;;
41903;SDS011;27586;51.124;4.182;2023-06-10T13:35:40;6.57;;;4.90;;
41903;SDS011;27586;51.124;4.182;2023-06-10T13:38:06;4.95;;;4.40;;
41903;SDS011;27586;51.124;4.182;2023-06-10T13:40:32;6.97;;;5.05;;
41903;SDS011;27586;51.124;4.182;2023-06-10T13:42:58;6.28;;;4.57;;
41903;SDS011;27586;51.124;4.182;2023-06-10T13:45:23;8.45;;;4.63;;
41903;SDS011;27586;51.124;4.182;2023-06-10T13:47:50;5.50;;;4.75;;
41903;SDS011;27586;51.124;4.182;2023-06-10T13:50:15;5.25;;;4.85;;
41903;SDS011;27586;51.124;4.182;2023-06-10T13:52:41;5.70;;;4.82;;
41903;SDS011;27586;51.124;4.182;2023-06-10T13:55:07;7.97;;;4.53;;
41903;SDS011;27586;51.124;4.182;2023-06-10T13:57:34;5.15;;;4.63;;
41903;SDS011;27586;51.124;4.182;2023-06-10T14:00:00;6.53;;;4.15;;
41903;SDS011;27586;51.124;4.182;2023-06-10T14:02:26;5.82;;;4.63;;
41903;SDS011;27586;51.124;4.182;2023-06-10T14:04:51;6.70;;;4.90;;
41903;SDS011;27586;51.124;4.182;2023-06-10T14:07:20;4.93;;;4.43;;
41903;SDS011;27586;51.124;4.182;2023-06-10T14:09:46;5.88;;;4.78;;
41903;SDS011;27586;51.124;4.182;2023-06-10T14:12:11;9.00;;;4.90;;
41903;SDS011;27586;51.124;4.182;2023-06-10T14:14:37;4.90;;;4.45;;
41903;SDS011;27586;51.124;4.182;2023-06-10T14:17:03;7.07;;;4.90;;
41903;SDS011;27586;51.124;4.182;2023-06-10T14:19:30;5.78;;;4.70;;
41903;SDS011;27586;51.124;4.182;2023-06-10T14:21:55;5.70;;;4.65;;
41903;SDS011;27586;51.124;4.182;2023-06-10T14:24:21;6.97;;;4.88;;
41903;SDS011;27586;51.124;4.182;2023-06-10T14:26:47;5.90;;;4.88;;
41903;SDS011;27586;51.124;4.182;2023-06-10T14:29:13;6.50;;;4.72;;
41903;SDS011;27586;51.124;4.182;2023-06-10T14:31:39;5.90;;;4.50;;
41903;SDS011;27586;51.124;4.182;2023-06-10T14:34:05;6.70;;;4.90;;
41903;SDS011;27586;51.124;4.182;2023-06-10T14:36:33;4.75;;;4.30;;
41903;SDS011;27586;51.124;4.182;2023-06-10T14:38:58;5.57;;;4.80;;
41903;SDS011;27586;51.124;4.182;2023-06-10T14:41:24;8.55;;;4.75;;
41903;SDS011;27586;51.124;4.182;2023-06-10T14:43:51;5.13;;;4.30;;
41903;SDS011;27586;51.124;4.182;2023-06-10T14:46:16;4.80;;;4.38;;
41903;SDS011;27586;51.124;4.182;2023-06-10T14:48:42;8.77;;;4.57;;
41903;SDS011;27586;51.124;4.182;2023-06-10T14:51:08;5.03;;;4.53;;
41903;SDS011;27586;51.124;4.182;2023-06-10T14:53:33;6.75;;;4.53;;
41903;SDS011;27586;51.124;4.182;2023-06-10T14:55:59;5.35;;;4.85;;
41903;SDS011;27586;51.124;4.182;2023-06-10T14:58:25;5.93;;;5.32;;
41903;SDS011;27586;51.124;4.182;2023-06-10T15:00:51;5.60;;;4.55;;